createdAt,value
2023-02-14T00:01:57.359Z,44.73
2023-02-14T00:04:25.833Z,42.30
2023-02-14T00:06:54.286Z,37.93
2023-02-14T00:09:22.602Z,40.97
2023-02-14T00:11:51.350Z,38.60
2023-02-14T00:14:37.067Z,44.60
2023-02-14T00:17:07.303Z,43.07
2023-02-14T00:19:36.196Z,51.53
2023-02-14T00:22:05.593Z,39.30
2023-02-14T00:24:34.404Z,48.23
2023-02-14T00:27:02.723Z,53.70
2023-02-14T00:29:33.398Z,40.10
2023-02-14T00:32:04.051Z,40.40
2023-02-14T00:34:36.523Z,36.90
2023-02-14T00:37:05.159Z,39.97
2023-02-14T00:39:33.595Z,36.87
2023-02-14T00:42:02.037Z,35.50
2023-02-14T00:44:30.580Z,39.13
2023-02-14T00:46:59.331Z,43.97
2023-02-14T00:49:27.639Z,44.53
2023-02-14T00:51:57.630Z,35.67
2023-02-14T00:54:26.290Z,45.23
2023-02-14T00:56:54.649Z,52.73
2023-02-14T00:59:22.987Z,39.50
2023-02-14T01:01:51.383Z,48.00
2023-02-14T01:04:19.808Z,53.77
2023-02-14T01:06:48.155Z,45.97
2023-02-14T01:09:17.889Z,41.80
2023-02-14T01:11:46.236Z,45.40
2023-02-14T01:14:16.308Z,39.10
2023-02-14T01:16:44.808Z,40.30
2023-02-14T01:19:13.323Z,43.40
2023-02-14T01:21:45.380Z,40.70
2023-02-14T01:24:14.077Z,38.50
2023-02-14T01:26:45.894Z,37.43
2023-02-14T01:29:14.391Z,32.17
2023-02-14T01:31:42.783Z,35.43
2023-02-14T01:34:11.240Z,27.93
2023-02-14T01:36:41.061Z,27.33
2023-02-14T01:39:13.611Z,26.13
2023-02-14T01:41:48.544Z,27.07
2023-02-14T01:44:59.541Z,29.73
2023-02-14T01:47:30.416Z,31.17
2023-02-14T01:50:03.816Z,20.33
2023-02-14T01:52:38.031Z,19.37
2023-02-14T01:55:12.219Z,23.10
2023-02-14T01:57:45.331Z,26.53
2023-02-14T02:00:32.372Z,25.67
2023-02-14T02:03:02.454Z,29.90
2023-02-14T02:05:30.982Z,32.57
2023-02-14T02:08:01.450Z,31.27
2023-02-14T02:10:30.395Z,34.70
2023-02-14T02:13:07.518Z,40.10
2023-02-14T02:15:51.052Z,30.10
2023-02-14T02:18:28.200Z,38.60
2023-02-14T02:21:32.658Z,46.13
2023-02-14T02:24:27.480Z,39.07
2023-02-14T02:27:31.542Z,37.20
2023-02-14T02:30:56.609Z,43.73
2023-02-14T02:34:07.831Z,39.07
2023-02-14T02:37:02.132Z,35.37
2023-02-14T02:39:57.715Z,34.80
2023-02-14T02:42:37.407Z,33.73
2023-02-14T02:45:15.068Z,53.20
2023-02-14T02:47:53.803Z,45.17
2023-02-14T02:50:46.711Z,43.40
2023-02-14T02:53:23.286Z,42.57
2023-02-14T02:56:17.105Z,49.43
2023-02-14T02:58:52.182Z,51.53
2023-02-14T03:01:25.618Z,41.33
2023-02-14T03:04:18.423Z,46.40
2023-02-14T03:06:47.473Z,46.80
2023-02-14T03:09:54.635Z,47.67
2023-02-14T03:12:48.602Z,45.90
2023-02-14T03:15:30.084Z,42.30
2023-02-14T03:18:06.098Z,47.07
2023-02-14T03:20:44.898Z,39.33
2023-02-14T03:23:21.876Z,46.90
2023-02-14T03:26:07.164Z,40.37
2023-02-14T03:28:46.970Z,39.87
2023-02-14T03:31:25.282Z,34.27
2023-02-14T03:34:02.630Z,40.07
2023-02-14T03:36:38.554Z,46.13
2023-02-14T03:39:14.743Z,38.23
2023-02-14T03:41:52.200Z,37.83
2023-02-14T03:44:28.456Z,35.63
2023-02-14T03:47:03.911Z,37.70
2023-02-14T03:49:37.594Z,35.40
2023-02-14T03:52:17.488Z,34.10
2023-02-14T03:54:49.053Z,33.77
2023-02-14T03:57:25.526Z,35.63
2023-02-14T03:59:55.124Z,32.10
2023-02-14T04:02:30.600Z,35.20
2023-02-14T04:05:02.083Z,30.97
2023-02-14T04:07:30.607Z,29.73
2023-02-14T04:09:58.944Z,39.87
2023-02-14T04:12:37.467Z,30.07
2023-02-14T04:15:07.815Z,35.10
2023-02-14T04:17:53.767Z,35.47
2023-02-14T04:20:22.426Z,39.07
2023-02-14T04:22:55.028Z,41.83
2023-02-14T04:25:24.931Z,34.90
2023-02-14T04:27:54.647Z,38.13
2023-02-14T04:30:23.351Z,38.20
2023-02-14T04:32:51.673Z,42.07
2023-02-14T04:35:20.075Z,42.80
2023-02-14T04:37:48.443Z,41.07
2023-02-14T04:40:17.922Z,38.67
2023-02-14T04:42:47.193Z,47.97
2023-02-14T04:45:17.011Z,40.83
2023-02-14T04:47:45.334Z,35.43
2023-02-14T04:50:15.005Z,36.77
2023-02-14T04:52:43.348Z,40.57
2023-02-14T04:55:12.229Z,31.33
2023-02-14T04:57:40.665Z,33.47
2023-02-14T05:00:10.562Z,35.40
2023-02-14T05:02:40.296Z,35.70
2023-02-14T05:05:09.805Z,37.87
2023-02-14T05:07:38.622Z,37.27
2023-02-14T05:10:08.380Z,34.07
2023-02-14T05:12:36.932Z,41.10
2023-02-14T05:15:05.670Z,40.97
2023-02-14T05:17:34.059Z,43.13
2023-02-14T05:20:04.295Z,42.00
2023-02-14T05:22:32.712Z,39.07
2023-02-14T05:25:01.253Z,47.70
2023-02-14T05:27:29.648Z,44.20
2023-02-14T05:29:58.099Z,46.73
2023-02-14T05:32:26.570Z,44.10
2023-02-14T05:34:54.875Z,49.23
2023-02-14T05:37:24.577Z,53.83
2023-02-14T05:39:53.042Z,53.93
2023-02-14T05:42:21.323Z,51.03
2023-02-14T05:44:49.693Z,48.13
2023-02-14T05:47:18.064Z,54.67
2023-02-14T05:49:46.512Z,49.93
2023-02-14T05:52:14.955Z,63.03
2023-02-14T05:54:44.900Z,42.23
2023-02-14T05:57:13.269Z,62.13
2023-02-14T05:59:43.998Z,60.67
2023-02-14T06:02:12.480Z,48.50
2023-02-14T06:04:41.236Z,61.83
2023-02-14T06:07:09.994Z,50.37
2023-02-14T06:09:38.311Z,52.57
2023-02-14T06:12:08.911Z,46.63
2023-02-14T06:14:37.570Z,51.80
2023-02-14T06:17:06.328Z,55.13
2023-02-14T06:19:34.741Z,54.27
2023-02-14T06:22:03.070Z,48.80
2023-02-14T06:24:31.442Z,54.87
2023-02-14T06:27:00.957Z,59.57
2023-02-14T06:29:30.748Z,51.53
2023-02-14T06:32:05.740Z,49.40
2023-02-14T06:34:34.733Z,53.83
2023-02-14T06:37:03.110Z,53.30
2023-02-14T06:39:31.573Z,50.67
2023-02-14T06:41:59.876Z,57.50
2023-02-14T06:44:28.317Z,47.70
2023-02-14T06:46:58.028Z,50.10
2023-02-14T06:49:26.493Z,53.63
2023-02-14T06:51:54.855Z,56.47
2023-02-14T06:54:23.320Z,43.73
2023-02-14T06:56:51.870Z,52.90
2023-02-14T06:59:20.224Z,51.20
2023-02-14T07:01:48.923Z,53.20
2023-02-14T07:04:18.825Z,58.50
2023-02-14T07:06:47.734Z,57.13
2023-02-14T07:09:17.911Z,53.43
2023-02-14T07:11:46.950Z,51.37
2023-02-14T07:14:15.583Z,57.87
2023-02-14T07:16:43.957Z,62.33
2023-02-14T07:19:12.426Z,69.07
2023-02-14T07:21:42.236Z,65.53
2023-02-14T07:24:10.616Z,62.10
2023-02-14T07:26:39.089Z,60.33
2023-02-14T07:29:07.806Z,69.53
2023-02-14T07:31:36.250Z,69.60
2023-02-14T07:34:04.745Z,53.83
2023-02-14T07:36:33.205Z,58.10
2023-02-14T07:39:02.954Z,58.80
2023-02-14T07:41:31.323Z,59.00
2023-02-14T07:44:00.244Z,65.47
2023-02-14T07:46:28.791Z,59.13
2023-02-14T07:48:57.233Z,70.10
2023-02-14T07:51:25.520Z,62.37
2023-02-14T07:53:53.847Z,62.63
2023-02-14T07:56:23.610Z,58.10
2023-02-14T07:58:51.991Z,63.97
2023-02-14T08:01:21.077Z,63.17
2023-02-14T08:03:50.079Z,69.73
2023-02-14T08:06:19.963Z,57.73
2023-02-14T08:08:49.375Z,63.10
2023-02-14T08:11:38.324Z,70.23
2023-02-14T08:14:08.183Z,69.50
2023-02-14T08:16:38.160Z,68.37
2023-02-14T08:19:06.692Z,71.07
2023-02-14T08:21:35.079Z,69.47
2023-02-14T08:24:03.620Z,68.70
2023-02-14T08:26:32.556Z,72.40
2023-02-14T08:29:02.338Z,78.20
2023-02-14T08:31:36.102Z,65.20
2023-02-14T08:34:05.440Z,62.77
2023-02-14T08:36:34.454Z,71.50
2023-02-14T08:39:04.501Z,77.17
2023-02-14T08:41:33.148Z,71.33
2023-02-14T08:44:02.055Z,65.30
2023-02-14T08:46:31.897Z,72.03
2023-02-14T08:49:00.478Z,66.90
2023-02-14T08:51:28.883Z,61.60
2023-02-14T08:53:57.264Z,69.63
2023-02-14T08:56:25.585Z,64.70
2023-02-14T08:58:55.194Z,70.80
2023-02-14T09:01:23.758Z,72.17
2023-02-14T09:03:53.585Z,63.37
2023-02-14T09:06:22.047Z,63.73
2023-02-14T09:08:50.942Z,71.87
2023-02-14T09:11:22.940Z,80.63
2023-02-14T09:13:53.133Z,70.97
2023-02-14T09:16:23.462Z,75.57
2023-02-14T09:18:54.641Z,76.47
2023-02-14T09:21:25.850Z,66.03
2023-02-14T09:23:54.838Z,68.77
2023-02-14T09:26:23.402Z,72.33
2023-02-14T09:28:51.817Z,72.90
2023-02-14T09:31:24.299Z,66.90
2023-02-14T09:34:11.399Z,74.70
2023-02-14T09:36:57.779Z,67.90
2023-02-14T09:39:26.285Z,68.77
2023-02-14T09:42:11.124Z,61.10
2023-02-14T09:44:43.373Z,72.70
2023-02-14T09:47:22.097Z,66.13
2023-02-14T09:49:54.382Z,64.63
2023-02-14T09:52:27.375Z,61.77
2023-02-14T09:54:59.074Z,70.67
2023-02-14T09:57:40.073Z,69.60
2023-02-14T10:00:21.653Z,63.80
2023-02-14T10:03:03.027Z,65.30
2023-02-14T10:05:38.583Z,63.03
2023-02-14T10:08:23.954Z,61.90
2023-02-14T10:11:08.106Z,62.67
2023-02-14T10:13:44.844Z,66.07
2023-02-14T10:16:21.814Z,51.97
2023-02-14T10:18:58.175Z,68.67
2023-02-14T10:21:34.927Z,57.23
2023-02-14T10:24:12.438Z,60.17
2023-02-14T10:26:42.041Z,69.47
2023-02-14T10:29:16.543Z,62.80
2023-02-14T10:31:55.795Z,55.67
2023-02-14T10:34:34.432Z,50.00
2023-02-14T10:37:25.290Z,51.20
2023-02-14T10:40:11.493Z,52.47
2023-02-14T10:42:52.686Z,47.13
2023-02-14T10:45:33.963Z,40.57
2023-02-14T10:48:13.297Z,45.00
2023-02-14T10:50:55.929Z,43.13
2023-02-14T10:53:38.351Z,37.20
2023-02-14T10:56:18.594Z,39.93
2023-02-14T10:58:50.452Z,36.00
2023-02-14T11:01:20.785Z,37.80
2023-02-14T11:03:58.569Z,41.13
2023-02-14T11:06:27.205Z,37.27
2023-02-14T11:08:57.458Z,38.30
2023-02-14T11:11:31.527Z,37.60
2023-02-14T11:13:59.972Z,38.67
2023-02-14T11:16:33.893Z,34.27
2023-02-14T11:19:20.148Z,38.17
2023-02-14T11:21:51.809Z,34.57
2023-02-14T11:24:29.908Z,37.77
2023-02-14T11:27:01.950Z,37.37
2023-02-14T11:29:36.238Z,45.77
2023-02-14T11:32:10.754Z,36.30
2023-02-14T11:34:42.552Z,35.13
2023-02-14T11:37:28.003Z,35.30
2023-02-14T11:40:01.436Z,43.17
2023-02-14T11:42:44.423Z,39.23
2023-02-14T11:45:32.911Z,38.07
2023-02-14T11:48:22.362Z,42.73
2023-02-14T11:51:05.349Z,32.97
2023-02-14T11:53:46.032Z,38.97
2023-02-14T11:56:17.810Z,37.47
2023-02-14T11:58:53.097Z,40.13
2023-02-14T12:01:27.818Z,32.90
2023-02-14T12:04:01.059Z,39.50
2023-02-14T12:06:33.037Z,35.50
2023-02-14T12:09:14.481Z,34.30
2023-02-14T12:11:57.599Z,34.87
2023-02-14T12:14:30.101Z,36.70
2023-02-14T12:17:05.790Z,36.43
2023-02-14T12:19:43.759Z,37.23
2023-02-14T12:22:18.082Z,35.37
2023-02-14T12:24:55.178Z,39.30
2023-02-14T12:27:29.194Z,33.33
2023-02-14T12:30:05.294Z,39.57
2023-02-14T12:32:34.921Z,33.27
2023-02-14T12:35:07.839Z,35.47
2023-02-14T12:38:02.685Z,36.47
2023-02-14T12:40:46.730Z,31.03
2023-02-14T12:43:45.767Z,34.90
2023-02-14T12:46:36.404Z,36.33
2023-02-14T12:49:49.609Z,38.47
2023-02-14T12:52:42.836Z,31.53
2023-02-14T12:55:34.376Z,31.73
2023-02-14T12:58:12.879Z,33.70
2023-02-14T13:01:04.414Z,30.20
2023-02-14T13:03:59.156Z,36.90
2023-02-14T13:06:32.084Z,30.40
2023-02-14T13:09:19.525Z,32.73
2023-02-14T13:12:02.641Z,34.47
2023-02-14T13:14:51.456Z,33.10
2023-02-14T13:17:34.909Z,33.63
2023-02-14T13:20:30.962Z,32.60
2023-02-14T13:23:06.169Z,29.17
2023-02-14T13:25:42.879Z,33.20
2023-02-14T13:28:15.687Z,42.17
2023-02-14T13:30:44.170Z,35.53
2023-02-14T13:33:28.369Z,35.50
2023-02-14T13:36:01.618Z,33.43
2023-02-14T13:38:32.263Z,33.40
2023-02-14T13:41:02.961Z,32.77
2023-02-14T13:43:52.676Z,32.57
2023-02-14T13:46:54.207Z,33.93
2023-02-14T13:49:31.731Z,29.43
2023-02-14T13:52:03.834Z,35.20
2023-02-14T13:54:44.890Z,32.70
2023-02-14T13:57:33.939Z,33.37
2023-02-14T14:00:41.591Z,33.70
2023-02-14T14:03:16.558Z,32.00
2023-02-14T14:06:04.724Z,37.67
2023-02-14T14:08:49.422Z,36.67
2023-02-14T14:11:58.524Z,29.23
2023-02-14T14:14:39.743Z,37.57
2023-02-14T14:17:28.746Z,36.03
2023-02-14T14:19:58.082Z,37.80
2023-02-14T14:22:29.128Z,35.77
2023-02-14T14:25:06.418Z,37.07
2023-02-14T14:27:41.448Z,33.10
2023-02-14T14:30:20.527Z,32.90
2023-02-14T14:32:48.992Z,33.63
2023-02-14T14:35:21.998Z,30.63
2023-02-14T14:37:54.580Z,35.13
2023-02-14T14:40:28.793Z,35.73
2023-02-14T14:43:01.948Z,36.07
2023-02-14T14:45:32.403Z,37.23
2023-02-14T14:48:09.250Z,33.30
2023-02-14T14:50:39.852Z,35.20
2023-02-14T14:53:20.788Z,32.50
2023-02-14T14:55:52.301Z,34.60
2023-02-14T14:58:40.307Z,34.70
2023-02-14T15:01:16.088Z,36.53
2023-02-14T15:03:45.608Z,37.73
2023-02-14T15:06:20.089Z,39.03
2023-02-14T15:08:51.481Z,35.03
2023-02-14T15:11:42.150Z,35.53
2023-02-14T15:14:18.202Z,37.17
2023-02-14T15:16:49.607Z,45.37
2023-02-14T15:19:21.925Z,34.80
2023-02-14T15:21:51.089Z,37.50
2023-02-14T15:24:21.417Z,36.50
2023-02-14T15:26:53.468Z,39.50
2023-02-14T15:29:26.463Z,41.90
2023-02-14T15:31:57.514Z,40.73
2023-02-14T15:34:28.787Z,34.63
2023-02-14T15:37:03.565Z,38.67
2023-02-14T15:39:38.048Z,42.17
2023-02-14T15:42:07.457Z,37.73
2023-02-14T15:44:35.991Z,42.50
2023-02-14T15:47:06.987Z,40.97
2023-02-14T15:49:40.938Z,34.23
2023-02-14T15:52:14.177Z,37.73
2023-02-14T15:54:47.395Z,44.67
2023-02-14T15:57:25.163Z,43.87
2023-02-14T15:59:54.009Z,38.23
2023-02-14T16:02:36.091Z,46.70
2023-02-14T16:05:08.020Z,45.30
2023-02-14T16:07:36.684Z,45.10
2023-02-14T16:10:27.909Z,43.70
2023-02-14T16:13:00.735Z,41.37
2023-02-14T16:15:31.831Z,50.33
2023-02-14T16:18:01.142Z,43.03
2023-02-14T16:20:40.926Z,47.27
2023-02-14T16:23:18.776Z,48.53
2023-02-14T16:25:49.172Z,43.73
2023-02-14T16:28:18.878Z,46.90
2023-02-14T16:30:49.678Z,40.80
2023-02-14T16:33:22.864Z,43.20
2023-02-14T16:35:51.971Z,47.13
2023-02-14T16:38:23.215Z,43.00
2023-02-14T16:40:55.517Z,48.77
2023-02-14T16:43:23.892Z,45.57
2023-02-14T16:45:52.316Z,47.57
2023-02-14T16:48:21.179Z,49.77
2023-02-14T16:50:49.666Z,41.00
2023-02-14T16:53:26.859Z,42.50
2023-02-14T16:55:58.402Z,47.23
2023-02-14T16:58:33.071Z,44.13
2023-02-14T17:01:01.686Z,47.57
2023-02-14T17:03:30.300Z,47.63
2023-02-14T17:06:01.363Z,46.97
2023-02-14T17:08:30.707Z,50.73
2023-02-14T17:11:02.178Z,45.70
2023-02-14T17:13:34.830Z,48.23
2023-02-14T17:16:04.595Z,53.63
2023-02-14T17:18:37.156Z,43.60
2023-02-14T17:21:06.740Z,43.50
2023-02-14T17:23:35.145Z,55.37
2023-02-14T17:26:06.278Z,45.13
2023-02-14T17:28:34.894Z,47.80
2023-02-14T17:31:03.582Z,45.50
2023-02-14T17:33:33.683Z,45.47
2023-02-14T17:36:06.703Z,50.50
2023-02-14T17:38:36.216Z,43.73
2023-02-14T17:41:14.970Z,42.17
2023-02-14T17:43:43.796Z,45.90
2023-02-14T17:46:14.282Z,48.23
2023-02-14T17:48:45.354Z,48.10
2023-02-14T17:51:14.742Z,48.10
2023-02-14T17:53:43.714Z,48.43
2023-02-14T17:56:17.942Z,49.63
2023-02-14T17:58:47.814Z,51.47
2023-02-14T18:01:18.900Z,51.03
2023-02-14T18:03:47.675Z,54.07
2023-02-14T18:06:16.699Z,48.00
2023-02-14T18:08:49.333Z,48.20
2023-02-14T18:11:20.924Z,51.03
2023-02-14T18:13:49.741Z,51.47
2023-02-14T18:16:20.277Z,53.77
2023-02-14T18:18:49.369Z,53.67
2023-02-14T18:21:20.957Z,51.80
2023-02-14T18:23:49.794Z,53.47
2023-02-14T18:26:20.327Z,57.83
2023-02-14T18:28:50.952Z,49.57
2023-02-14T18:31:20.235Z,61.23
2023-02-14T18:33:50.699Z,52.27
2023-02-14T18:36:24.182Z,52.00
2023-02-14T18:38:54.759Z,57.07
2023-02-14T18:41:29.579Z,58.50
2023-02-14T18:43:58.362Z,56.83
2023-02-14T18:46:29.047Z,61.67
2023-02-14T18:48:58.607Z,46.07
2023-02-14T18:51:29.357Z,56.77
2023-02-14T18:53:59.665Z,66.10
2023-02-14T18:56:32.644Z,54.10
2023-02-14T18:59:03.906Z,54.10
2023-02-14T19:01:36.903Z,57.73
2023-02-14T19:04:08.953Z,54.53
2023-02-14T19:06:37.844Z,52.67
2023-02-14T19:09:11.456Z,76.73
2023-02-14T19:11:42.046Z,67.83
2023-02-14T19:14:12.671Z,58.90
2023-02-14T19:16:50.124Z,61.40
2023-02-14T19:19:18.819Z,68.30
2023-02-14T19:21:47.555Z,70.47
2023-02-14T19:24:18.312Z,71.30
2023-02-14T19:26:48.413Z,84.07
2023-02-14T19:29:19.577Z,76.27
2023-02-14T19:31:50.145Z,68.23
2023-02-14T19:34:21.158Z,75.70
2023-02-14T19:36:52.817Z,72.93
2023-02-14T19:39:23.094Z,73.20
2023-02-14T19:41:53.344Z,70.43
2023-02-14T19:44:23.145Z,72.87
2023-02-14T19:46:54.323Z,81.50
2023-02-14T19:49:23.282Z,73.03
2023-02-14T19:51:52.338Z,78.03
2023-02-14T19:54:24.093Z,84.87
2023-02-14T19:56:56.091Z,75.57
2023-02-14T19:59:24.702Z,77.27
2023-02-14T20:01:54.871Z,69.97
2023-02-14T20:04:26.276Z,75.90
2023-02-14T20:06:55.203Z,67.73
2023-02-14T20:09:25.649Z,73.90
2023-02-14T20:11:57.992Z,75.70
2023-02-14T20:14:28.874Z,60.73
2023-02-14T20:17:00.723Z,65.50
2023-02-14T20:19:33.594Z,61.67
2023-02-14T20:22:02.381Z,66.80
2023-02-14T20:24:33.270Z,65.83
2023-02-14T20:27:03.287Z,69.03
2023-02-14T20:29:31.956Z,73.17
2023-02-14T20:32:03.611Z,77.33
2023-02-14T20:34:32.318Z,61.50
2023-02-14T20:37:00.919Z,64.77
2023-02-14T20:39:31.561Z,86.77
2023-02-14T20:42:00.118Z,90.90
2023-02-14T20:44:30.123Z,93.83
2023-02-14T20:46:59.122Z,85.20
2023-02-14T20:49:30.735Z,76.50
2023-02-14T20:51:59.688Z,84.80
2023-02-14T20:54:30.109Z,75.13
2023-02-14T20:56:59.151Z,68.53
2023-02-14T20:59:29.183Z,77.43
2023-02-14T21:01:59.507Z,79.63
2023-02-14T21:04:28.444Z,76.43
2023-02-14T21:06:57.878Z,77.93
2023-02-14T21:09:27.137Z,84.23
2023-02-14T21:11:55.479Z,77.47
2023-02-14T21:14:23.853Z,82.80
2023-02-14T21:16:53.512Z,86.73
2023-02-14T21:19:22.314Z,90.40
2023-02-14T21:21:50.702Z,86.20
2023-02-14T21:24:19.189Z,99.53
2023-02-14T21:26:47.611Z,82.20
2023-02-14T21:29:16.312Z,84.07
2023-02-14T21:31:44.910Z,78.80
2023-02-14T21:34:17.210Z,77.67
2023-02-14T21:36:45.557Z,77.23
2023-02-14T21:39:14.216Z,72.33
2023-02-14T21:41:42.566Z,74.50
2023-02-14T21:44:31.296Z,80.60
2023-02-14T21:46:58.690Z,81.90
2023-02-14T21:49:45.826Z,79.03
2023-02-14T21:52:14.223Z,86.87
2023-02-14T21:54:42.997Z,78.57
2023-02-14T21:57:11.391Z,87.27
2023-02-14T21:59:41.838Z,71.53
2023-02-14T22:02:12.091Z,87.50
2023-02-14T22:04:43.300Z,80.27
2023-02-14T22:07:11.683Z,79.40
2023-02-14T22:09:40.006Z,78.20
2023-02-14T22:12:08.842Z,90.30
2023-02-14T22:14:37.193Z,78.03
2023-02-14T22:17:05.685Z,81.13
2023-02-14T22:19:35.285Z,82.87
2023-02-14T22:22:05.648Z,73.40
2023-02-14T22:24:33.983Z,78.97
2023-02-14T22:27:02.331Z,85.53
2023-02-14T22:29:30.862Z,72.97
2023-02-14T22:31:59.330Z,66.53
2023-02-14T22:34:28.194Z,72.37
2023-02-14T22:36:56.583Z,71.67
2023-02-14T22:39:26.337Z,64.27
2023-02-14T22:41:54.690Z,71.87
2023-02-14T22:44:23.063Z,69.50
2023-02-14T22:46:51.544Z,90.63
2023-02-14T22:49:19.964Z,76.83
2023-02-14T22:51:48.291Z,77.57
2023-02-14T22:54:17.594Z,71.33
2023-02-14T22:56:50.174Z,82.50
2023-02-14T22:59:21.739Z,69.43
2023-02-14T23:01:51.445Z,75.67
2023-02-14T23:04:22.967Z,65.63
2023-02-14T23:06:53.077Z,62.77
2023-02-14T23:09:22.235Z,62.33
2023-02-14T23:11:52.328Z,55.50
2023-02-14T23:14:39.215Z,69.97
2023-02-14T23:17:25.552Z,62.07
2023-02-14T23:20:11.292Z,61.67
2023-02-14T23:22:41.545Z,65.80
2023-02-14T23:25:12.770Z,74.33
2023-02-14T23:27:44.580Z,73.63
2023-02-14T23:30:16.098Z,80.43
2023-02-14T23:32:45.121Z,73.17
2023-02-14T23:35:13.772Z,77.83
2023-02-14T23:37:42.533Z,84.90
2023-02-14T23:40:11.924Z,72.00
2023-02-14T23:42:40.248Z,88.93
2023-02-14T23:45:28.263Z,82.47
2023-02-14T23:47:56.679Z,80.33
2023-02-14T23:50:25.036Z,72.30
2023-02-14T23:52:53.507Z,62.20
2023-02-14T23:55:21.854Z,70.50
2023-02-14T23:57:50.164Z,77.67
